Terminal Aerodrome Forecast
Issued by NWS Grand Forks, ND

Home | Current Version | Previous Version | Text Only | Print | Product List | Glossary On
Versions: 1 2 3 4 5 6 7 8 9 10 11 12 13 14 15 16 17
000
FTUS43 KFGF 022300
TAFFAR
TAF
KFAR 022333Z 0300/0324 23015G22KT P6SM SCT080
     FM030200 19006KT P6SM SCT080
     FM030600 VRB03KT P6SM SKC
     FM031400 12008KT P6SM BKN250=

USA.gov is the U.S. government's official web portal to all federal, state and local government web resources and services.